createdAt,value
2023-04-18T05:31:48.229Z,21.77
2023-04-18T05:34:49.935Z,21.42
2023-04-18T05:37:51.758Z,20.65
2023-04-18T05:40:55.897Z,22.15
2023-04-18T05:44:05.414Z,21.13
2023-04-18T05:47:07.773Z,21.60
2023-04-18T05:50:11.190Z,20.08
2023-04-18T05:53:12.994Z,20.70
2023-04-18T05:56:14.991Z,21.02
2023-04-18T05:59:17.114Z,20.20
2023-04-18T06:02:19.350Z,18.40
2023-04-18T06:05:21.613Z,19.10
2023-04-18T06:08:23.879Z,19.77
2023-04-18T06:11:26.055Z,19.35
2023-04-18T06:49:56.193Z,17.92
2023-04-18T06:52:58.599Z,17.67
2023-04-18T06:56:01.113Z,18.52
2023-04-18T06:59:03.676Z,24.35
2023-04-18T07:02:06.210Z,18.88
2023-04-18T07:05:11.543Z,20.38
2023-04-18T07:08:14.112Z,17.45
2023-04-18T07:11:18.991Z,19.65
2023-04-18T07:14:24.804Z,17.92
2023-04-18T07:17:28.783Z,18.70
2023-04-18T07:20:31.247Z,18.95
2023-04-18T07:23:34.042Z,18.55
2023-04-18T07:26:37.941Z,19.20
2023-04-18T07:29:44.565Z,18.58
2023-04-18T07:32:47.768Z,18.08
2023-04-18T07:35:50.416Z,19.42
2023-04-18T07:38:53.123Z,17.70
2023-04-18T07:41:57.655Z,17.80
2023-04-18T07:45:00.520Z,20.05
2023-04-18T07:48:03.073Z,18.25
2023-04-18T07:51:05.172Z,20.08
2023-04-18T07:54:07.436Z,18.27
2023-04-18T07:57:11.880Z,18.33
2023-04-18T08:00:15.720Z,17.33
2023-04-18T08:03:20.172Z,18.48
2023-04-18T08:06:23.356Z,19.33
2023-04-18T08:09:26.566Z,17.60
2023-04-18T08:12:28.858Z,17.70
2023-04-18T08:15:32.472Z,16.98
2023-04-18T08:18:35.935Z,17.85
2023-04-18T08:21:39.477Z,18.58
2023-04-18T08:24:46.423Z,20.20
2023-04-18T08:27:53.585Z,19.00
2023-04-18T08:30:56.643Z,17.33
2023-04-18T08:33:58.612Z,17.23
2023-04-18T08:37:01.503Z,17.30
2023-04-18T08:40:05.479Z,19.02
2023-04-18T08:43:12.625Z,18.67
2023-04-18T08:46:15.013Z,18.58
2023-04-18T08:49:17.981Z,17.70
2023-04-18T08:52:22.903Z,19.55
2023-04-18T08:55:25.314Z,18.75
2023-04-18T08:58:27.628Z,18.90
2023-04-18T09:01:57.662Z,18.90
2023-04-18T09:05:00.088Z,19.10
2023-04-18T09:08:22.297Z,17.90
2023-04-18T09:11:30.072Z,17.95
2023-04-18T09:14:32.999Z,18.42
2023-04-18T09:17:58.560Z,18.25
2023-04-18T09:21:19.021Z,19.38
2023-04-18T09:24:24.797Z,20.48
2023-04-18T09:27:26.744Z,20.63
2023-04-18T09:30:40.155Z,19.67
2023-04-18T09:33:52.845Z,20.70
2023-04-18T09:37:14.969Z,19.15
2023-04-18T09:40:22.549Z,19.60
2023-04-18T09:43:30.252Z,19.20
2023-04-18T09:46:33.811Z,20.98
2023-04-18T09:49:36.834Z,19.40
2023-04-18T09:52:43.129Z,17.17
2023-04-18T09:55:46.856Z,18.90
2023-04-18T09:58:57.128Z,19.13
2023-04-18T10:02:00.522Z,18.00
2023-04-18T10:05:07.949Z,18.58
2023-04-18T10:08:10.818Z,20.08
2023-04-18T10:11:12.908Z,16.77
2023-04-18T10:14:17.950Z,19.48
2023-04-18T10:20:24.605Z,19.80
2023-04-18T10:23:34.620Z,18.17
2023-04-18T10:26:50.426Z,17.10
2023-04-18T10:29:54.114Z,16.67
2023-04-18T10:32:56.293Z,19.20
2023-04-18T10:35:59.256Z,18.23
2023-04-18T10:39:22.154Z,19.65
2023-04-18T10:42:52.031Z,17.52
2023-04-18T10:46:28.008Z,17.65
2023-04-18T10:49:35.988Z,19.88
2023-04-18T10:52:38.453Z,18.52
2023-04-18T10:55:46.617Z,16.60
2023-04-18T10:58:51.493Z,17.10
2023-04-18T11:01:57.723Z,16.80
2023-04-18T11:05:01.597Z,16.63
2023-04-18T11:08:03.425Z,16.45
2023-04-18T11:11:09.416Z,16.10
2023-04-18T11:14:11.790Z,16.05
2023-04-18T11:17:24.693Z,15.38
2023-04-18T11:20:29.724Z,16.15
2023-04-18T11:23:31.713Z,17.77
2023-04-18T11:26:33.393Z,15.93
2023-04-18T11:29:35.347Z,16.00
2023-04-18T11:32:37.264Z,14.57
2023-04-18T11:35:40.326Z,15.70
2023-04-18T11:38:42.238Z,14.35
2023-04-18T11:41:50.277Z,14.35
2023-04-18T11:44:52.160Z,13.50
2023-04-18T11:47:57.589Z,15.23
2023-04-18T11:50:59.559Z,15.32
2023-04-18T11:54:02.188Z,14.85
2023-04-18T11:57:05.557Z,13.98
2023-04-18T12:00:09.153Z,13.57
2023-04-18T12:03:18.825Z,14.02
2023-04-18T12:06:21.010Z,13.98
2023-04-18T12:09:27.003Z,15.20
2023-04-18T12:12:30.351Z,13.15
2023-04-18T12:15:33.586Z,14.18
2023-04-18T12:18:35.452Z,14.00
2023-04-18T12:21:55.568Z,13.10
2023-04-18T12:25:14.594Z,15.52
2023-04-18T12:28:16.795Z,13.82
2023-04-18T12:31:18.591Z,15.00
2023-04-18T12:34:21.111Z,15.60
2023-04-18T12:37:25.812Z,14.00
2023-04-18T12:40:28.502Z,15.50
2023-04-18T12:43:30.317Z,14.55
2023-04-18T12:46:32.130Z,14.23
2023-04-18T12:49:33.916Z,14.35
2023-04-18T12:52:38.740Z,14.45
2023-04-18T12:55:40.439Z,13.23
2023-04-18T12:58:42.085Z,13.25
2023-04-18T13:01:43.801Z,12.88
2023-04-18T13:04:45.798Z,13.90
2023-04-18T13:07:49.345Z,13.27
2023-04-18T13:10:51.598Z,14.60
2023-04-18T13:13:53.401Z,12.90
2023-04-18T13:16:55.387Z,13.18
2023-04-18T13:19:57.109Z,11.68
2023-04-18T13:22:59.212Z,12.20
2023-04-18T13:26:01.009Z,12.57
2023-04-18T13:29:03.505Z,12.13
2023-04-18T13:32:06.291Z,12.10
2023-04-18T13:35:09.042Z,10.68
2023-04-18T13:38:11.153Z,9.93
2023-04-18T13:41:13.727Z,10.52
2023-04-18T13:44:15.714Z,8.38
2023-04-18T13:47:19.368Z,7.88
2023-04-18T13:50:21.380Z,8.15
2023-04-18T13:53:23.193Z,8.23
2023-04-18T13:56:24.928Z,8.63
2023-04-18T13:59:27.071Z,7.05
2023-04-18T14:02:28.956Z,6.57
2023-04-18T14:05:31.701Z,6.45
2023-04-18T14:08:33.398Z,5.80
2023-04-18T14:11:35.593Z,6.65
2023-04-18T14:14:37.411Z,5.95
2023-04-18T14:17:39.175Z,6.03
2023-04-18T14:20:41.067Z,7.03
2023-04-18T14:23:45.838Z,6.93
2023-04-18T14:26:48.124Z,6.78
2023-04-18T14:29:50.182Z,7.40
2023-04-18T14:32:51.887Z,6.95
2023-04-18T14:35:53.669Z,8.13
2023-04-18T14:38:55.595Z,8.20
2023-04-18T14:41:57.564Z,7.18
2023-04-18T14:44:59.518Z,7.18
2023-04-18T14:48:01.689Z,6.95
2023-04-18T14:51:03.767Z,8.38
2023-04-18T14:54:05.632Z,8.23
2023-04-18T14:57:08.316Z,8.07
2023-04-18T15:00:11.305Z,7.63
2023-04-18T15:03:13.441Z,7.35
2023-04-18T15:06:15.381Z,7.03
2023-04-18T15:09:17.109Z,7.65
2023-04-18T15:12:18.779Z,7.03
2023-04-18T15:15:20.947Z,6.47
2023-04-18T15:18:22.815Z,8.20
2023-04-18T15:21:24.478Z,7.18
2023-04-18T15:24:26.184Z,8.07
2023-04-18T15:27:27.999Z,8.18
2023-04-18T15:30:29.797Z,7.65
2023-04-18T15:33:31.564Z,6.95
2023-04-18T15:36:35.330Z,9.43
2023-04-18T15:39:37.366Z,7.43
2023-04-18T15:42:39.403Z,7.22
2023-04-18T15:45:41.365Z,7.10
2023-04-18T15:48:43.064Z,6.85
2023-04-18T15:51:44.738Z,7.30
2023-04-18T15:54:46.569Z,6.38
2023-04-18T15:57:48.363Z,7.70
